Time;durP1;ratioP1;P1;durP2;ratioP2;P2;SDS_P1;SDS_P2;PMS_P1;PMS_P2;Temp;Humidity;BMP_temperature;BMP_pressure;BME280_temperature;BME280_humidity;BME280_pressure;Samples;Min_cycle;Max_cycle;Signal;HPM_P1;HPM_P2
2023/08/26 00:00:53;;;;;;;5.45;4.20;;;18.50;99.90;;;;;;5098631;28;20218;-85
2023/08/26 00:03:20;;;;;;;7.90;3.90;;;18.60;99.90;;;;;;5099893;28;20626;-85
2023/08/26 00:05:48;;;;;;;4.10;3.40;;;18.60;99.90;;;;;;5100397;28;20206;-85
2023/08/26 00:08:15;;;;;;;6.22;3.67;;;18.50;99.90;;;;;;5100253;28;20296;-85
2023/08/26 00:10:43;;;;;;;8.18;3.70;;;18.60;99.90;;;;;;5100016;28;20313;-84
2023/08/26 00:13:10;;;;;;;7.40;3.70;;;18.40;99.90;;;;;;5100351;28;20244;-85
2023/08/26 00:15:37;;;;;;;7.28;3.65;;;18.30;99.90;;;;;;5102765;28;20202;-85
2023/08/26 00:18:08;;;;;;;7.00;4.07;;;18.30;99.90;;;;;;5103200;28;20426;-85
2023/08/26 00:20:35;;;;;;;5.65;3.85;;;18.40;99.90;;;;;;5103563;28;20239;-85
2023/08/26 00:23:02;;;;;;;6.32;4.13;;;18.50;99.90;;;;;;5102310;28;20200;-84
2023/08/26 00:25:29;;;;;;;7.40;4.15;;;18.50;99.90;;;;;;5101892;28;20576;-84
2023/08/26 00:27:57;;;;;;;8.25;4.25;;;18.60;99.90;;;;;;5102744;28;20201;-85
2023/08/26 00:30:24;;;;;;;6.00;3.88;;;18.50;99.90;;;;;;5103249;28;20589;-85
2023/08/26 00:32:51;;;;;;;5.25;3.85;;;18.60;99.90;;;;;;5097605;28;20582;-85
2023/08/26 00:35:17;;;;;;;5.50;3.80;;;18.60;99.90;;;;;;5107914;28;20269;-85
2023/08/26 00:37:44;;;;;;;7.03;4.55;;;18.60;99.90;;;;;;5103370;28;20205;-85
2023/08/26 00:40:12;;;;;;;6.55;3.97;;;18.60;99.90;;;;;;5102602;28;20225;-84
2023/08/26 00:42:38;;;;;;;7.15;4.55;;;18.60;99.90;;;;;;5102411;28;20289;-85
2023/08/26 00:45:08;;;;;;;5.80;4.68;;;18.70;99.90;;;;;;5097738;28;20205;-84
2023/08/26 00:47:37;;;;;;;8.20;4.95;;;18.70;99.90;;;;;;5109688;28;20202;-84
2023/08/26 00:50:04;;;;;;;7.30;5.10;;;18.70;99.90;;;;;;5101078;28;20308;-85
2023/08/26 00:52:31;;;;;;;8.18;5.28;;;18.70;99.90;;;;;;5103112;28;20244;-85
2023/08/26 00:54:58;;;;;;;9.30;5.45;;;18.80;99.90;;;;;;5101147;28;20212;-85
2023/08/26 00:57:25;;;;;;;6.88;4.75;;;18.70;99.90;;;;;;5101393;28;20754;-85
2023/08/26 00:59:52;;;;;;;7.47;5.47;;;18.70;99.90;;;;;;5100807;28;20329;-85
2023/08/26 01:02:20;;;;;;;9.90;5.50;;;18.70;99.90;;;;;;5101715;28;20263;-85
2023/08/26 01:04:47;;;;;;;8.23;5.35;;;18.80;99.90;;;;;;5101901;28;20758;-85
2023/08/26 01:07:14;;;;;;;7.32;4.90;;;18.60;99.90;;;;;;5101033;28;20208;-84
2023/08/26 01:09:41;;;;;;;9.98;5.88;;;18.60;99.90;;;;;;5101602;28;20240;-85
2023/08/26 01:12:16;;;;;;;9.82;5.90;;;18.60;99.90;;;;;;5102011;28;20201;-85
2023/08/26 01:14:49;;;;;;;8.70;5.60;;;18.70;99.90;;;;;;5102087;28;20201;-85
2023/08/26 01:17:18;;;;;;;7.32;4.95;;;18.70;99.90;;;;;;5110428;28;20198;-85
2023/08/26 01:19:47;;;;;;;9.80;5.20;;;18.50;99.90;;;;;;5102591;28;20225;-85
2023/08/26 01:22:16;;;;;;;6.05;5.15;;;18.60;99.90;;;;;;5100671;28;20213;-85
2023/08/26 01:24:45;;;;;;;9.80;5.53;;;18.50;99.90;;;;;;5095536;28;20253;-85
2023/08/26 01:27:12;;;;;;;7.75;5.43;;;18.60;99.90;;;;;;5099374;28;20204;-84
2023/08/26 01:29:38;;;;;;;7.10;5.95;;;18.60;99.90;;;;;;5103858;28;20580;-85
2023/08/26 01:32:16;;;;;;;9.85;6.50;;;18.60;99.90;;;;;;5121792;28;20201;-85
2023/08/26 01:34:48;;;;;;;8.77;6.13;;;18.60;99.90;;;;;;5121744;28;20537;-85
2023/08/26 01:37:18;;;;;;;13.43;8.30;;;18.60;99.90;;;;;;5121513;28;20186;-84
2023/08/26 01:39:48;;;;;;;11.85;7.82;;;18.70;99.90;;;;;;5105522;28;20321;-85
2023/08/26 01:42:19;;;;;;;12.25;7.63;;;18.60;99.90;;;;;;5101843;28;20197;-85
2023/08/26 01:44:46;;;;;;;11.32;7.95;;;18.50;99.90;;;;;;5101736;28;20651;-85
2023/08/26 01:47:13;;;;;;;12.60;9.20;;;18.50;99.90;;;;;;5100567;28;20209;-84
2023/08/26 01:49:40;;;;;;;11.25;9.27;;;18.40;99.90;;;;;;5081425;28;20252;-85
2023/08/26 01:52:07;;;;;;;10.85;8.35;;;18.50;99.90;;;;;;5081218;28;20213;-85
2023/08/26 01:54:34;;;;;;;13.15;9.10;;;18.50;99.90;;;;;;5080997;28;20270;-85
2023/08/26 01:57:02;;;;;;;13.35;8.70;;;18.40;99.90;;;;;;5081370;28;20268;-85
2023/08/26 01:59:29;;;;;;;11.82;8.57;;;18.50;99.90;;;;;;5079592;28;20599;-85
2023/08/26 02:01:56;;;;;;;14.38;9.55;;;18.40;99.90;;;;;;5081644;28;20194;-84
2023/08/26 02:04:24;;;;;;;12.45;9.63;;;18.50;99.90;;;;;;5088292;28;20224;-84
2023/08/26 02:06:50;;;;;;;12.98;9.02;;;18.40;99.90;;;;;;5099556;28;20233;-84
2023/08/26 02:09:17;;;;;;;12.63;9.02;;;18.50;99.90;;;;;;5099874;28;20249;-84
2023/08/26 02:11:44;;;;;;;15.43;9.93;;;18.50;99.90;;;;;;5101261;28;20197;-84
2023/08/26 02:14:12;;;;;;;14.25;9.48;;;18.50;99.90;;;;;;5101892;28;20215;-85
2023/08/26 02:16:39;;;;;;;13.30;9.57;;;18.50;99.90;;;;;;5101801;28;20221;-85
2023/08/26 02:19:06;;;;;;;14.68;9.90;;;18.50;99.90;;;;;;5101085;28;20218;-84
2023/08/26 02:21:32;;;;;;;12.77;9.32;;;18.40;99.90;;;;;;5101469;28;20581;-84
2023/08/26 02:23:59;;;;;;;14.45;10.27;;;18.40;99.90;;;;;;5105847;28;20211;-84
2023/08/26 02:26:26;;;;;;;13.85;10.90;;;18.40;99.90;;;;;;5104198;28;20273;-83
2023/08/26 02:28:53;;;;;;;16.05;10.75;;;18.40;99.90;;;;;;5096563;28;20296;-84
2023/08/26 02:31:21;;;;;;;18.55;11.43;;;18.40;99.90;;;;;;5104551;28;20197;-83
2023/08/26 02:33:48;;;;;;;16.55;10.35;;;18.50;99.90;;;;;;5089195;28;20205;-84
2023/08/26 02:36:15;;;;;;;17.50;11.50;;;18.50;99.90;;;;;;5108132;28;20242;-84
2023/08/26 02:38:42;;;;;;;18.35;13.10;;;18.60;99.90;;;;;;5103683;28;20197;-84
2023/08/26 02:41:09;;;;;;;19.25;13.65;;;18.60;99.90;;;;;;5112192;28;20312;-84
2023/08/26 02:43:36;;;;;;;18.52;12.57;;;18.70;99.90;;;;;;5098046;28;20210;-84
2023/08/26 02:46:02;;;;;;;21.15;13.57;;;18.60;99.90;;;;;;5093058;28;20261;-84
2023/08/26 02:48:31;;;;;;;20.88;13.80;;;18.60;99.90;;;;;;5100310;28;20201;-84
2023/08/26 02:50:59;;;;;;;20.27;14.23;;;18.70;99.90;;;;;;5100029;28;20252;-84
2023/08/26 02:53:27;;;;;;;21.02;13.77;;;18.70;99.90;;;;;;5098986;28;20204;-84
2023/08/26 02:55:55;;;;;;;23.35;15.60;;;18.70;99.90;;;;;;5099364;28;20213;-84
2023/08/26 02:58:22;;;;;;;22.17;14.80;;;18.60;99.90;;;;;;5098480;28;20289;-84
2023/08/26 03:00:49;;;;;;;19.15;13.25;;;18.70;99.90;;;;;;5098808;28;20275;-84
2023/08/26 03:03:16;;;;;;;18.15;12.27;;;18.60;99.90;;;;;;5099823;28;20197;-84
2023/08/26 03:05:44;;;;;;;19.67;13.90;;;18.50;99.90;;;;;;5099769;28;20264;-85
2023/08/26 03:08:11;;;;;;;22.02;14.77;;;18.50;99.90;;;;;;5099574;28;20237;-85
2023/08/26 03:10:38;;;;;;;20.00;13.60;;;18.40;99.90;;;;;;5098608;28;20243;-85
2023/08/26 03:13:06;;;;;;;22.02;15.55;;;18.30;99.90;;;;;;5098462;28;20581;-85
2023/08/26 03:15:33;;;;;;;24.35;16.83;;;18.50;99.90;;;;;;5096357;28;20247;-85
2023/08/26 03:18:03;;;;;;;20.08;13.80;;;18.50;99.90;;;;;;5099982;28;20264;-84
2023/08/26 03:20:30;;;;;;;22.85;14.98;;;18.50;99.90;;;;;;5098784;28;20256;-84
2023/08/26 03:22:58;;;;;;;21.23;15.10;;;18.50;99.90;;;;;;5099795;28;20241;-85
2023/08/26 03:25:25;;;;;;;22.98;12.45;;;18.50;99.90;;;;;;5098727;28;20284;-85
2023/08/26 03:27:52;;;;;;;21.98;16.00;;;18.50;99.90;;;;;;5098644;28;20233;-85
2023/08/26 03:30:18;;;;;;;21.00;14.35;;;18.50;99.90;;;;;;5099574;28;20221;-85
2023/08/26 03:32:45;;;;;;;19.90;14.80;;;18.60;99.90;;;;;;5099389;28;20215;-85
2023/08/26 03:35:12;;;;;;;22.75;14.85;;;18.60;99.90;;;;;;5099452;28;20221;-84
2023/08/26 03:37:39;;;;;;;24.27;17.10;;;18.60;99.90;;;;;;5098859;28;20580;-85
2023/08/26 03:40:09;;;;;;;24.05;17.05;;;18.70;99.90;;;;;;5096556;28;20221;-84
2023/08/26 03:42:36;;;;;;;24.75;17.95;;;18.60;99.90;;;;;;5097670;28;20208;-85
2023/08/26 03:45:04;;;;;;;27.08;19.42;;;18.70;99.90;;;;;;5099465;28;20572;-85
2023/08/26 03:47:32;;;;;;;26.58;19.27;;;18.60;99.90;;;;;;5100072;28;20697;-85
2023/08/26 03:49:59;;;;;;;22.38;17.38;;;18.70;99.90;;;;;;5099883;28;20217;-85
2023/08/26 03:52:26;;;;;;;26.38;20.15;;;18.70;99.90;;;;;;5102673;28;20289;-86
2023/08/26 03:54:53;;;;;;;28.60;19.38;;;18.70;99.90;;;;;;5102921;28;20280;-85
2023/08/26 03:57:21;;;;;;;26.92;19.90;;;18.70;99.90;;;;;;5103679;28;20205;-86
2023/08/26 03:59:48;;;;;;;26.63;20.67;;;18.60;99.90;;;;;;5100586;28;20217;-85
2023/08/26 04:02:15;;;;;;;27.67;20.63;;;18.60;99.90;;;;;;5124503;28;20201;-85
2023/08/26 04:04:42;;;;;;;28.08;20.08;;;18.60;99.90;;;;;;5105051;28;20202;-85
2023/08/26 04:07:08;;;;;;;26.05;19.45;;;18.70;99.90;;;;;;5102401;28;20290;-85
2023/08/26 04:09:36;;;;;;;25.23;20.02;;;18.60;99.90;;;;;;5100999;28;20220;-85
2023/08/26 04:12:03;;;;;;;28.38;20.10;;;18.60;99.90;;;;;;5101015;28;20680;-85
2023/08/26 04:14:31;;;;;;;25.45;18.80;;;18.60;99.90;;;;;;5101892;28;20581;-85
2023/08/26 04:16:58;;;;;;;24.52;19.25;;;18.60;99.90;;;;;;5103082;28;20209;-85
2023/08/26 04:19:25;;;;;;;25.25;19.90;;;18.50;99.90;;;;;;5102029;28;20232;-85
2023/08/26 04:21:52;;;;;;;26.73;18.38;;;18.40;99.90;;;;;;5083080;28;20233;-85
2023/08/26 04:24:18;;;;;;;26.55;20.48;;;18.40;99.90;;;;;;5083564;28;20682;-85
2023/08/26 04:26:45;;;;;;;24.95;18.38;;;18.20;99.90;;;;;;5082238;28;20204;-85
2023/08/26 04:29:12;;;;;;;24.55;18.25;;;18.20;99.90;;;;;;5082349;28;20756;-86
2023/08/26 04:31:40;;;;;;;24.45;18.02;;;18.20;99.90;;;;;;5082234;28;20208;-85
2023/08/26 04:34:07;;;;;;;26.45;19.02;;;18.30;99.90;;;;;;5082229;28;20217;-85
2023/08/26 04:36:34;;;;;;;25.48;18.13;;;18.20;99.90;;;;;;5079900;28;20280;-85
2023/08/26 04:39:01;;;;;;;27.55;19.42;;;18.10;99.90;;;;;;5091077;28;20569;-84
2023/08/26 04:41:27;;;;;;;27.48;19.85;;;18.20;99.90;;;;;;5099917;28;20245;-85
2023/08/26 04:43:54;;;;;;;28.58;21.45;;;18.20;99.90;;;;;;5100296;28;20208;-85
2023/08/26 04:46:21;;;;;;;27.55;21.10;;;18.20;99.90;;;;;;5101387;28;20202;-84
2023/08/26 04:48:49;;;;;;;29.27;20.83;;;18.20;99.90;;;;;;5099225;28;20213;-84
2023/08/26 04:51:16;;;;;;;26.17;21.13;;;18.30;99.90;;;;;;5098732;28;20296;-84
2023/08/26 04:53:43;;;;;;;30.13;21.98;;;18.30;99.90;;;;;;5098490;28;20213;-84
2023/08/26 04:56:10;;;;;;;28.73;20.40;;;18.30;99.90;;;;;;5099724;28;20212;-85
2023/08/26 04:58:37;;;;;;;29.60;22.33;;;18.30;99.90;;;;;;5099749;28;20193;-85
2023/08/26 05:01:04;;;;;;;31.27;22.33;;;18.30;99.90;;;;;;5099434;28;20218;-85
2023/08/26 05:03:31;;;;;;;28.30;21.98;;;18.30;99.90;;;;;;5099139;28;20296;-84
2023/08/26 05:05:59;;;;;;;33.70;22.90;;;18.40;99.90;;;;;;5102611;28;20208;-84
2023/08/26 05:08:26;;;;;;;32.83;22.58;;;18.40;99.90;;;;;;5102389;28;20205;-84
2023/08/26 05:10:53;;;;;;;32.85;24.60;;;18.50;99.90;;;;;;5101258;28;20217;-85
2023/08/26 05:13:19;;;;;;;31.90;22.38;;;18.40;99.90;;;;;;5101913;28;20553;-84
2023/08/26 05:15:47;;;;;;;31.90;23.33;;;18.20;99.90;;;;;;5101685;28;20203;-85
2023/08/26 05:18:16;;;;;;;30.15;21.75;;;18.40;99.90;;;;;;5102374;28;20651;-85
2023/08/26 05:20:44;;;;;;;34.97;25.23;;;18.40;99.90;;;;;;5101225;28;20275;-84
2023/08/26 05:23:13;;;;;;;34.33;25.98;;;18.20;99.90;;;;;;5100807;28;20212;-85
2023/08/26 05:25:39;;;;;;;33.97;23.45;;;18.30;99.90;;;;;;5102172;28;20197;-85
2023/08/26 05:28:06;;;;;;;32.38;23.85;;;18.30;99.90;;;;;;5101034;28;20205;-84
2023/08/26 05:30:34;;;;;;;34.88;24.05;;;18.30;99.90;;;;;;5100651;28;20277;-85
2023/08/26 05:33:01;;;;;;;31.80;24.25;;;18.30;99.90;;;;;;5101059;28;20224;-84
2023/08/26 05:35:28;;;;;;;31.10;23.17;;;18.30;99.90;;;;;;5101057;28;20274;-84
2023/08/26 05:37:55;;;;;;;31.55;22.70;;;18.40;99.90;;;;;;5101462;28;20621;-84
2023/08/26 05:40:26;;;;;;;33.47;23.23;;;18.40;99.90;;;;;;5099299;28;20221;-85
2023/08/26 05:42:54;;;;;;;28.60;21.10;;;18.50;99.90;;;;;;5100031;28;20208;-84
2023/08/26 05:45:21;;;;;;;27.67;21.35;;;18.60;99.90;;;;;;5100037;28;20213;-85
2023/08/26 05:47:48;;;;;;;31.25;22.15;;;18.60;99.90;;;;;;5100355;28;20655;-84
2023/08/26 05:50:15;;;;;;;27.40;19.27;;;18.60;99.90;;;;;;5099737;28;20217;-84
2023/08/26 05:52:41;;;;;;;24.60;19.40;;;18.60;99.90;;;;;;5100132;28;20197;-84
2023/08/26 05:55:09;;;;;;;27.35;20.25;;;18.60;99.90;;;;;;5100082;28;20240;-85
2023/08/26 05:57:38;;;;;;;29.88;20.60;;;18.60;99.90;;;;;;5099370;28;20568;-84
2023/08/26 06:00:05;;;;;;;26.95;19.58;;;18.70;99.90;;;;;;5100256;28;20231;-85
2023/08/26 06:02:32;;;;;;;33.70;20.08;;;18.60;99.90;;;;;;5099257;28;20255;-84
2023/08/26 06:04:59;;;;;;;26.02;18.55;;;18.60;99.90;;;;;;5099390;28;20198;-85
2023/08/26 06:07:26;;;;;;;25.80;18.23;;;18.70;99.90;;;;;;5099871;28;20236;-85
2023/08/26 06:09:53;;;;;;;25.85;17.10;;;18.80;99.90;;;;;;5099586;28;20312;-84
2023/08/26 06:12:20;;;;;;;25.77;18.70;;;18.80;99.90;;;;;;5098710;28;20233;-85
2023/08/26 06:14:48;;;;;;;23.55;17.30;;;18.80;99.90;;;;;;5099553;28;20567;-85
2023/08/26 06:17:15;;;;;;;22.10;17.05;;;18.90;99.90;;;;;;5098644;28;20261;-85
2023/08/26 06:19:41;;;;;;;23.48;16.90;;;19.00;99.90;;;;;;5098215;28;20219;-84
2023/08/26 06:22:08;;;;;;;22.15;15.68;;;19.00;99.90;;;;;;5098907;28;20689;-83
2023/08/26 06:24:35;;;;;;;22.25;14.73;;;19.20;99.90;;;;;;5096010;28;20581;-84
2023/08/26 06:27:02;;;;;;;20.65;15.75;;;19.20;99.90;;;;;;5089396;28;20202;-85
2023/08/26 06:29:30;;;;;;;21.38;14.70;;;19.30;99.90;;;;;;5095985;28;20593;-84
2023/08/26 06:31:58;;;;;;;21.48;14.98;;;19.90;99.90;;;;;;5090339;28;20198;-84
2023/08/26 06:34:25;;;;;;;24.55;14.82;;;20.00;99.90;;;;;;5103474;28;20220;-85
2023/08/26 06:36:52;;;;;;;22.85;15.25;;;19.60;99.90;;;;;;5116412;28;20280;-84
2023/08/26 06:39:19;;;;;;;21.20;15.25;;;19.50;99.90;;;;;;5097742;28;20218;-84
2023/08/26 06:41:46;;;;;;;21.95;14.05;;;19.60;99.90;;;;;;5114703;28;20654;-84
2023/08/26 06:44:13;;;;;;;18.15;13.95;;;19.80;99.90;;;;;;5119070;28;20231;-84
2023/08/26 06:46:40;;;;;;;20.85;15.52;;;19.80;99.90;;;;;;5118475;28;20231;-85
2023/08/26 06:49:09;;;;;;;21.67;14.88;;;19.60;99.90;;;;;;5104756;28;20240;-84
2023/08/26 06:51:36;;;;;;;23.17;16.70;;;19.50;99.90;;;;;;5097696;28;20698;-84
2023/08/26 06:54:03;;;;;;;20.08;16.17;;;19.30;99.90;;;;;;5086390;28;20238;-84
2023/08/26 06:56:30;;;;;;;21.02;15.88;;;19.30;99.90;;;;;;5077681;28;20296;-84
2023/08/26 06:58:58;;;;;;;24.10;17.25;;;19.30;99.90;;;;;;5085766;28;20209;-84
2023/08/26 07:01:26;;;;;;;21.80;15.93;;;19.40;99.90;;;;;;5095260;28;20213;-83
2023/08/26 07:03:54;;;;;;;10.93;8.05;;;19.40;99.90;;;;;;5095738;28;20742;-83
2023/08/26 07:06:24;;;;;;;4.65;4.18;;;18.80;99.90;;;;;;5095800;28;20197;-84
2023/08/26 07:08:51;;;;;;;5.38;3.70;;;18.30;99.90;;;;;;5096273;28;20209;-83
2023/08/26 07:11:18;;;;;;;3.00;2.63;;;17.90;99.90;;;;;;5096269;28;20679;-84
2023/08/26 07:13:45;;;;;;;6.28;3.22;;;17.60;99.90;;;;;;5111686;28;20567;-84
2023/08/26 07:16:12;;;;;;;4.53;2.85;;;17.60;99.90;;;;;;5117321;28;20211;-84
2023/08/26 07:18:39;;;;;;;4.22;2.50;;;17.80;99.90;;;;;;5101412;28;20201;-84
2023/08/26 07:21:06;;;;;;;3.80;2.60;;;17.80;99.90;;;;;;5096155;28;20230;-85
2023/08/26 07:23:34;;;;;;;3.83;2.20;;;17.80;99.90;;;;;;5095839;28;20322;-83
2023/08/26 07:26:01;;;;;;;3.00;2.00;;;18.00;99.90;;;;;;5079248;28;20293;-85
2023/08/26 07:28:29;;;;;;;2.42;2.08;;;17.90;99.90;;;;;;5080478;28;20439;-84
2023/08/26 07:31:02;;;;;;;6.10;1.90;;;17.90;99.90;;;;;;5079179;28;20218;-83
2023/08/26 07:33:29;;;;;;;3.20;1.83;;;18.20;99.90;;;;;;5080068;28;20194;-84
2023/08/26 07:36:02;;;;;;;3.67;2.10;;;18.20;99.90;;;;;;5080050;28;20208;-84
2023/08/26 07:38:29;;;;;;;1.58;1.40;;;18.10;99.90;;;;;;5080047;28;20224;-85
2023/08/26 07:40:57;;;;;;;5.03;1.60;;;18.00;99.90;;;;;;5079435;28;20218;-85
2023/08/26 07:43:24;;;;;;;2.72;1.70;;;18.20;99.90;;;;;;5083030;28;20205;-84
2023/08/26 07:45:51;;;;;;;1.27;1.20;;;18.10;99.90;;;;;;5116746;28;20200;-83
2023/08/26 07:48:18;;;;;;;2.22;1.52;;;18.00;99.90;;;;;;5120574;28;20284;-84
2023/08/26 07:50:45;;;;;;;2.92;1.52;;;17.80;99.90;;;;;;5119604;28;20228;-84
2023/08/26 07:53:12;;;;;;;3.38;1.58;;;17.80;99.90;;;;;;5121352;28;20200;-83
2023/08/26 07:55:39;;;;;;;3.83;1.13;;;17.90;99.90;;;;;;5099454;28;20205;-84
2023/08/26 07:58:07;;;;;;;4.18;1.40;;;17.80;99.90;;;;;;5101315;28;20193;-82
2023/08/26 08:00:34;;;;;;;2.60;1.27;;;17.90;99.90;;;;;;5100276;28;20225;-83
2023/08/26 08:03:01;;;;;;;2.58;1.70;;;17.90;99.90;;;;;;5099904;28;20205;-85
2023/08/26 08:05:27;;;;;;;4.85;1.70;;;17.90;99.90;;;;;;5101204;28;20205;-84
2023/08/26 08:07:54;;;;;;;2.85;1.38;;;17.90;99.90;;;;;;5102116;28;20288;-83
2023/08/26 08:10:21;;;;;;;1.65;1.20;;;18.00;99.90;;;;;;5079802;28;20280;-84
2023/08/26 08:12:48;;;;;;;1.58;1.20;;;18.00;99.90;;;;;;5080690;28;20205;-84
2023/08/26 08:15:16;;;;;;;2.05;1.60;;;18.00;99.90;;;;;;5080652;28;20213;-83
2023/08/26 08:17:43;;;;;;;3.63;1.38;;;18.00;99.90;;;;;;5080790;28;20214;-83
2023/08/26 08:20:10;;;;;;;2.60;1.50;;;18.00;99.90;;;;;;5080190;28;20320;-84
2023/08/26 08:22:39;;;;;;;3.15;1.17;;;18.10;99.90;;;;;;5095449;28;20237;-84
2023/08/26 08:25:07;;;;;;;1.85;1.27;;;18.20;99.90;;;;;;5094939;28;20202;-83
2023/08/26 08:27:35;;;;;;;3.35;1.48;;;18.20;99.90;;;;;;5114693;28;20223;-83
2023/08/26 08:30:03;;;;;;;6.70;1.77;;;18.30;99.90;;;;;;5120423;28;20225;-84
2023/08/26 08:32:31;;;;;;;3.65;1.60;;;18.30;99.90;;;;;;5101863;28;20651;-83
2023/08/26 08:34:58;;;;;;;5.25;1.50;;;18.30;99.90;;;;;;5101480;28;20278;-83
2023/08/26 08:37:25;;;;;;;4.47;1.70;;;18.20;99.90;;;;;;5101275;28;20201;-84
2023/08/26 08:39:52;;;;;;;4.28;1.52;;;18.40;99.90;;;;;;5100108;28;20293;-83
2023/08/26 08:42:20;;;;;;;4.45;1.63;;;18.40;99.90;;;;;;5100515;28;20289;-84
2023/08/26 08:44:47;;;;;;;2.45;1.77;;;18.40;99.90;;;;;;5100163;28;20227;-84
2023/08/26 08:47:14;;;;;;;2.03;1.38;;;18.50;99.90;;;;;;5100009;28;20628;-82
2023/08/26 08:49:44;;;;;;;3.10;1.60;;;18.50;99.90;;;;;;5100264;28;20304;-83
2023/08/26 08:52:12;;;;;;;3.58;1.52;;;18.60;99.90;;;;;;5098087;28;20197;-83
2023/08/26 08:54:40;;;;;;;4.88;1.67;;;18.60;99.90;;;;;;5100717;28;20221;-83
2023/08/26 08:57:07;;;;;;;3.03;1.38;;;18.70;99.90;;;;;;5118462;28;20673;-83
2023/08/26 08:59:37;;;;;;;3.17;1.60;;;18.80;99.90;;;;;;5104389;28;20635;-82
2023/08/26 09:02:06;;;;;;;5.15;1.42;;;18.80;99.90;;;;;;5100838;28;20709;-83
2023/08/26 09:04:33;;;;;;;2.42;1.40;;;19.00;99.90;;;;;;5090626;28;20202;-80
2023/08/26 09:07:03;;;;;;;3.05;1.92;;;19.10;99.90;;;;;;5083703;28;20198;-82
2023/08/26 09:09:30;;;;;;;6.00;2.13;;;19.20;99.90;;;;;;5087679;28;20225;-82
2023/08/26 09:11:57;;;;;;;2.05;1.50;;;19.30;99.90;;;;;;5094950;28;20206;-82
2023/08/26 09:14:24;;;;;;;2.65;1.67;;;19.20;99.90;;;;;;5099969;28;20210;-82
2023/08/26 09:16:51;;;;;;;2.10;1.20;;;18.80;99.90;;;;;;5094106;28;20213;-83
2023/08/26 09:19:18;;;;;;;3.20;1.42;;;18.80;99.90;;;;;;5079286;28;20226;-83
2023/08/26 09:21:46;;;;;;;2.95;1.40;;;18.70;99.90;;;;;;5079604;28;20234;-84
2023/08/26 09:24:15;;;;;;;3.05;1.60;;;18.90;99.90;;;;;;5098435;28;20213;-82
2023/08/26 09:26:42;;;;;;;2.28;1.70;;;19.30;99.90;;;;;;5094804;28;20198;-82
2023/08/26 09:29:15;;;;;;;4.07;1.50;;;19.10;99.90;;;;;;5100121;28;20247;-82
2023/08/26 09:31:49;;;;;;;4.22;1.55;;;19.40;99.90;;;;;;5101125;28;20202;-83
2023/08/26 09:34:24;;;;;;;3.67;1.50;;;19.70;99.90;;;;;;5100757;28;20221;-83
2023/08/26 09:36:52;;;;;;;4.65;1.40;;;19.70;99.90;;;;;;5101028;28;20189;-82
2023/08/26 09:39:21;;;;;;;2.65;1.30;;;19.40;99.90;;;;;;5099093;28;20289;-82
2023/08/26 09:41:48;;;;;;;3.13;1.35;;;20.30;99.90;;;;;;5100859;28;20655;-83
2023/08/26 09:44:17;;;;;;;1.88;1.42;;;20.40;99.90;;;;;;5099472;28;20241;-82
2023/08/26 09:46:45;;;;;;;4.50;1.40;;;20.70;99.90;;;;;;5099902;28;20215;-84
2023/08/26 09:49:14;;;;;;;3.25;1.25;;;20.70;99.90;;;;;;5099054;28;20225;-84
2023/08/26 09:51:46;;;;;;;2.83;1.48;;;21.20;99.90;;;;;;5100091;28;20209;-83
2023/08/26 09:54:17;;;;;;;1.42;1.05;;;21.20;99.90;;;;;;5099465;28;20262;-83
2023/08/26 09:56:46;;;;;;;1.42;1.30;;;20.90;99.90;;;;;;5100502;28;20292;-82
2023/08/26 09:59:13;;;;;;;1.20;1.10;;;21.10;99.90;;;;;;5099133;28;20241;-84
2023/08/26 10:01:40;;;;;;;1.88;1.20;;;21.20;99.90;;;;;;5110855;28;20216;-82
2023/08/26 10:04:09;;;;;;;2.10;1.20;;;21.30;99.90;;;;;;5102413;28;20208;-82
2023/08/26 10:06:40;;;;;;;3.78;1.48;;;20.90;99.90;;;;;;5099163;28;20194;-83
2023/08/26 10:09:10;;;;;;;1.65;1.13;;;20.90;99.90;;;;;;5087590;28;20259;-83
2023/08/26 10:11:39;;;;;;;1.20;1.10;;;20.60;99.90;;;;;;5078268;28;20230;-84
2023/08/26 10:14:12;;;;;;;4.20;1.20;;;20.60;99.90;;;;;;5078606;28;20616;-82
2023/08/26 10:16:41;;;;;;;4.95;1.63;;;20.80;99.90;;;;;;5078889;28;20206;-82
2023/08/26 10:19:09;;;;;;;6.93;1.80;;;21.00;99.90;;;;;;5078455;28;20234;-83
2023/08/26 10:21:37;;;;;;;3.30;1.33;;;21.20;99.90;;;;;;5078430;28;20228;-83
2023/08/26 10:24:05;;;;;;;1.50;1.05;;;21.80;99.90;;;;;;5089724;28;20220;-83
2023/08/26 10:26:33;;;;;;;2.92;1.17;;;22.20;99.90;;;;;;5099389;28;20197;-82
2023/08/26 10:29:00;;;;;;;4.15;1.15;;;22.20;99.90;;;;;;5105679;28;20579;-83
2023/08/26 10:31:34;;;;;;;2.58;1.10;;;22.10;99.90;;;;;;5098795;28;20731;-84
2023/08/26 10:34:13;;;;;;;9.70;1.75;;;21.30;99.90;;;;;;5089576;28;20213;-83
2023/08/26 10:36:41;;;;;;;1.35;1.10;;;21.00;99.90;;;;;;5087802;28;20221;-84
2023/08/26 10:39:14;;;;;;;4.50;1.40;;;20.70;99.90;;;;;;5087261;28;20229;-84
2023/08/26 10:41:41;;;;;;;1.63;1.17;;;20.70;99.90;;;;;;5077245;28;20268;-83
2023/08/26 10:44:07;;;;;;;3.75;1.33;;;21.30;99.90;;;;;;5078509;28;20210;-83
2023/08/26 10:46:38;;;;;;;2.35;1.50;;;22.10;99.90;;;;;;5076838;28;20197;-82
2023/08/26 10:49:05;;;;;;;3.30;1.20;;;22.70;99.90;;;;;;5076404;28;20237;-83
2023/08/26 10:51:36;;;;;;;1.98;1.15;;;22.80;99.90;;;;;;5077752;28;20483;-83
2023/08/26 10:54:04;;;;;;;2.40;1.30;;;23.30;99.90;;;;;;5078561;28;20297;-82
2023/08/26 10:56:33;;;;;;;2.28;1.23;;;23.00;99.90;;;;;;5079074;28;20255;-83
2023/08/26 10:59:03;;;;;;;2.63;1.05;;;23.30;99.90;;;;;;5077718;28;20206;-83
2023/08/26 11:01:35;;;;;;;2.38;1.38;;;23.30;99.90;;;;;;5078264;28;20202;-83
2023/08/26 11:04:04;;;;;;;3.13;1.35;;;23.80;99.90;;;;;;5079087;28;20264;-82
2023/08/26 11:06:37;;;;;;;2.33;1.40;;;23.60;99.90;;;;;;5078227;28;20210;-84
2023/08/26 11:09:04;;;;;;;1.35;1.20;;;23.70;99.90;;;;;;5077667;28;20202;-83
2023/08/26 11:11:31;;;;;;;2.33;1.13;;;23.70;99.90;;;;;;5078786;28;20214;-82
2023/08/26 11:13:58;;;;;;;1.98;1.10;;;23.80;99.90;;;;;;5078591;28;20304;-83
2023/08/26 11:16:25;;;;;;;2.60;0.82;;;23.90;99.90;;;;;;5078527;28;20660;-83
2023/08/26 11:18:53;;;;;;;7.80;1.45;;;24.10;99.90;;;;;;5077415;28;20198;-82
2023/08/26 11:21:21;;;;;;;2.92;1.08;;;23.90;99.90;;;;;;5077606;28;20236;-82
2023/08/26 11:23:48;;;;;;;1.35;1.05;;;24.00;99.90;;;;;;5077854;28;20222;-83
2023/08/26 11:26:20;;;;;;;2.10;1.25;;;24.00;99.90;;;;;;5077879;28;20197;-83
2023/08/26 11:28:47;;;;;;;3.50;1.17;;;24.10;99.90;;;;;;5078427;28;20202;-83
2023/08/26 11:31:14;;;;;;;2.22;1.08;;;23.80;99.90;;;;;;5078095;28;20207;-82
2023/08/26 11:33:42;;;;;;;3.85;1.10;;;23.80;99.90;;;;;;5077588;28;20204;-82
2023/08/26 11:36:08;;;;;;;2.63;1.00;;;23.80;99.90;;;;;;5078021;28;20231;-81
2023/08/26 11:38:37;;;;;;;4.70;1.52;;;24.10;99.90;;;;;;5077132;28;20619;-84
2023/08/26 11:41:04;;;;;;;1.52;1.00;;;24.40;99.90;;;;;;5076849;28;20226;-80
2023/08/26 11:43:31;;;;;;;2.15;1.08;;;23.90;99.90;;;;;;5076694;28;20226;-82
2023/08/26 11:45:58;;;;;;;2.08;1.35;;;24.20;99.90;;;;;;5077520;28;20198;-84
2023/08/26 11:48:26;;;;;;;2.33;1.10;;;23.70;99.90;;;;;;5077378;28;20565;-83
2023/08/26 11:51:00;;;;;;;3.22;1.23;;;24.40;99.90;;;;;;5077987;28;20226;-83
2023/08/26 11:53:27;;;;;;;3.25;1.27;;;23.90;99.90;;;;;;5078184;28;20199;-81
2023/08/26 11:55:55;;;;;;;2.75;1.30;;;23.90;99.90;;;;;;5077942;28;20699;-82
2023/08/26 11:58:22;;;;;;;1.08;1.00;;;24.00;99.90;;;;;;5076753;28;20202;-82
2023/08/26 12:00:49;;;;;;;3.00;1.25;;;23.70;99.90;;;;;;5077259;28;20230;-82
2023/08/26 12:03:17;;;;;;;3.50;0.98;;;23.90;99.90;;;;;;5078275;28;20234;-83
2023/08/26 12:05:46;;;;;;;3.70;1.30;;;24.40;99.90;;;;;;5077912;28;20206;-82
2023/08/26 12:08:17;;;;;;;1.77;1.25;;;24.30;99.90;;;;;;5077648;28;20234;-83
2023/08/26 12:10:47;;;;;;;2.63;1.42;;;24.10;99.90;;;;;;5076616;28;20590;-81
2023/08/26 12:13:17;;;;;;;2.92;1.60;;;23.40;93.20;;;;;;5080826;28;20199;-81
2023/08/26 12:15:44;;;;;;;2.75;1.45;;;23.20;99.90;;;;;;5081030;28;20198;-83
2023/08/26 12:18:11;;;;;;;1.63;1.52;;;23.10;99.90;;;;;;5081093;28;20209;-83
2023/08/26 12:20:40;;;;;;;4.32;1.55;;;22.80;99.90;;;;;;5078936;28;20234;-83
2023/08/26 12:23:08;;;;;;;1.17;0.90;;;23.00;99.90;;;;;;5081792;28;20695;-83
2023/08/26 12:25:36;;;;;;;2.55;1.13;;;22.60;99.90;;;;;;5095189;28;20233;-83
2023/08/26 12:28:08;;;;;;;2.42;1.00;;;23.40;99.90;;;;;;5099267;28;20247;-81
2023/08/26 12:30:37;;;;;;;1.88;1.40;;;23.90;99.90;;;;;;5100828;28;20228;-83
2023/08/26 12:33:05;;;;;;;1.92;1.15;;;23.70;90.70;;;;;;5100513;28;20202;-82
2023/08/26 12:35:32;;;;;;;1.58;1.30;;;23.90;97.60;;;;;;5108907;28;20201;-81
2023/08/26 12:38:02;;;;;;;3.65;1.80;;;24.10;97.30;;;;;;5092472;28;20204;-81
2023/08/26 12:40:29;;;;;;;2.78;1.33;;;24.10;98.70;;;;;;5098616;28;20304;-82